Time;durP1;ratioP1;P1;durP2;ratioP2;P2;SDS_P1;SDS_P2;PMS_P1;PMS_P2;Temp;Humidity;BMP_temperature;BMP_pressure;BME280_temperature;BME280_humidity;BME280_pressure;Samples;Min_cycle;Max_cycle;Signal;HPM_P1;HPM_P2
2023/04/28 00:01:40;;;;;;;15.65;7.82;;;;;;;15.05;60.64;101515.91;4935575;28;20202;-80
2023/04/28 00:04:18;;;;;;;11.80;7.50;;;;;;;14.94;60.50;101513.38;4896200;28;20106;-81
2023/04/28 00:06:56;;;;;;;19.10;7.22;;;;;;;14.88;60.29;101509.44;4896010;28;20649;-80
2023/04/28 00:09:41;;;;;;;16.05;8.45;;;;;;;14.76;60.58;101510.59;4922838;28;20051;-81
2023/04/28 00:12:08;;;;;;;12.35;7.43;;;;;;;14.68;60.71;101518.44;4936186;28;20051;-81
2023/04/28 00:14:42;;;;;;;11.85;7.13;;;;;;;14.72;60.76;101525.19;4926941;28;20509;-81
2023/04/28 00:17:37;;;;;;;9.98;5.95;;;;;;;14.84;60.26;101528.59;4898547;28;20055;-80
2023/04/28 00:20:25;;;;;;;7.88;5.75;;;;;;;14.87;60.06;101517.59;4888735;29;20425;-81
2023/04/28 00:23:00;;;;;;;7.72;5.35;;;;;;;14.64;59.64;101468.97;4895087;29;20254;-80
2023/04/28 00:25:27;;;;;;;14.30;5.70;;;;;;;14.89;59.62;101521.81;4915006;28;20043;-80
2023/04/28 00:27:53;;;;;;;10.50;5.80;;;;;;;14.94;59.50;101513.38;4908077;28;20051;-78
2023/04/28 00:30:20;;;;;;;9.85;6.18;;;;;;;14.16;59.62;101382.47;4911089;29;20501;-81
2023/04/28 00:32:47;;;;;;;8.68;5.80;;;;;;;14.93;59.48;101520.56;4933337;28;20467;-82
2023/04/28 00:35:14;;;;;;;11.57;5.97;;;;;;;14.67;59.82;101490.88;4915034;28;20050;-81
2023/04/28 00:37:40;;;;;;;7.72;5.50;;;;;;;14.69;60.28;101510.28;4936743;28;20058;-80
2023/04/28 00:40:07;;;;;;;10.63;5.53;;;;;;;14.39;59.88;101456.97;4953293;28;20145;-80
2023/04/28 00:42:37;;;;;;;11.27;5.15;;;;;;;14.62;60.49;101511.84;4946012;28;20125;-81
2023/04/28 00:45:07;;;;;;;12.50;5.10;;;;;;;14.57;60.31;101495.38;4920826;28;20279;-82
2023/04/28 00:47:37;;;;;;;12.90;6.10;;;;;;;14.49;60.78;101487.19;4932449;28;20101;-82
2023/04/28 00:50:12;;;;;;;12.38;5.68;;;;;;;14.36;61.10;101470.59;4899532;28;20047;-80
2023/04/28 00:52:38;;;;;;;7.75;5.38;;;;;;;14.50;61.15;101495.06;4894254;28;20751;-82
2023/04/28 00:55:08;;;;;;;9.65;5.63;;;;;;;14.38;60.57;101463.31;4936380;28;20043;-81
2023/04/28 00:57:35;;;;;;;9.80;5.55;;;;;;;14.16;60.77;101427.88;4927455;28;20509;-82
2023/04/28 01:00:03;;;;;;;10.90;5.07;;;;;;;14.56;60.69;101495.53;4957291;28;20122;-81
2023/04/28 01:02:32;;;;;;;9.00;5.78;;;;;;;14.52;60.39;101492.28;4936185;28;20074;-81
2023/04/28 01:05:01;;;;;;;6.93;5.45;;;;;;;14.32;61.23;101462.88;4965667;28;20125;-81
2023/04/28 01:07:28;;;;;;;10.57;5.80;;;;;;;13.90;61.45;101401.69;4963163;28;20057;-82
2023/04/28 01:09:57;;;;;;;10.02;5.90;;;;;;;14.17;61.17;101445.56;4941956;28;20047;-83
2023/04/28 01:12:24;;;;;;;8.93;5.22;;;;;;;14.37;61.34;101472.28;4947879;28;20798;-81
2023/04/28 01:14:50;;;;;;;10.85;5.93;;;;;;;14.29;60.83;101452.44;4918536;28;20092;-80
2023/04/28 01:17:23;;;;;;;10.30;5.07;;;;;;;14.53;60.64;101467.22;4926846;28;20532;-83
2023/04/28 01:20:04;;;;;;;13.27;6.13;;;;;;;14.40;61.11;101469.34;4953693;28;20054;-82
2023/04/28 01:22:38;;;;;;;7.90;5.63;;;;;;;14.11;61.03;101430.09;4895300;28;20050;-81
2023/04/28 01:25:12;;;;;;;10.55;5.70;;;;;;;14.03;61.30;101420.13;4913701;28;20300;-80
2023/04/28 01:27:53;;;;;;;10.27;5.47;;;;;;;14.12;61.45;101453.16;4894404;28;20487;-81
2023/04/28 01:30:31;;;;;;;11.25;5.00;;;;;;;14.03;61.09;101432.63;4898124;28;20053;-82
2023/04/28 01:33:06;;;;;;;11.18;6.07;;;;;;;14.29;61.01;101481.81;4892288;28;20058;-83
2023/04/28 01:35:40;;;;;;;7.45;5.18;;;;;;;14.05;61.26;101441.31;4927115;28;20060;-83
2023/04/28 01:38:14;;;;;;;11.57;6.13;;;;;;;14.24;61.26;101478.72;4896181;28;20187;-81
2023/04/28 01:40:48;;;;;;;11.45;5.35;;;;;;;14.08;61.35;101457.09;4879707;28;20054;-81
2023/04/28 01:43:15;;;;;;;12.90;5.93;;;;;;;14.30;61.44;101477.34;4900866;28;20088;-82
2023/04/28 01:45:42;;;;;;;6.07;4.88;;;;;;;14.42;60.39;101467.38;4922286;28;20053;-81
2023/04/28 01:48:11;;;;;;;13.52;5.18;;;;;;;14.26;60.68;101438.53;4920337;28;20381;-81
2023/04/28 01:50:38;;;;;;;7.90;5.55;;;;;;;14.41;60.55;101479.03;4912056;28;20523;-80
2023/04/28 01:53:09;;;;;;;11.23;5.72;;;;;;;14.00;60.81;101417.72;4926844;28;20146;-81
2023/04/28 01:55:45;;;;;;;7.97;5.63;;;;;;;14.07;61.22;101439.38;4899223;28;20087;-81
2023/04/28 01:58:19;;;;;;;13.55;5.63;;;;;;;14.29;61.21;101487.16;4882570;28;20807;-82
2023/04/28 02:00:47;;;;;;;12.00;5.30;;;;;;;14.13;61.37;101460.19;4912503;28;20109;-82
2023/04/28 02:03:18;;;;;;;10.43;5.95;;;;;;;13.73;61.67;101405.03;4948509;28;20058;-80
2023/04/28 02:05:45;;;;;;;11.43;5.68;;;;;;;14.20;61.46;101493.38;4964956;28;20162;-80
2023/04/28 02:08:11;;;;;;;6.72;5.78;;;;;;;14.13;61.55;101484.22;4962532;28;20527;-81
2023/04/28 02:10:41;;;;;;;12.50;5.95;;;;;;;13.98;62.05;101474.91;4949865;28;20295;-81
2023/04/28 02:13:07;;;;;;;10.23;5.32;;;;;;;13.53;62.34;101413.97;4947606;28;20062;-81
2023/04/28 02:15:39;;;;;;;8.45;5.63;;;;;;;13.87;61.97;101475.88;4940004;28;20046;-81
2023/04/28 02:18:05;;;;;;;9.40;6.18;;;;;;;14.05;62.17;101506.28;4941909;28;20057;-81
2023/04/28 02:20:32;;;;;;;13.77;6.47;;;;;;;13.30;62.17;101395.53;4963993;28;20478;-81
2023/04/28 02:22:58;;;;;;;9.10;5.85;;;;;;;13.96;61.64;101496.41;4939087;28;20058;-80
2023/04/28 02:25:25;;;;;;;16.27;6.78;;;;;;;13.84;61.98;101476.16;4938026;28;20125;-81
2023/04/28 02:27:52;;;;;;;10.00;5.93;;;;;;;13.46;62.30;101427.84;4944745;28;20054;-81
2023/04/28 02:30:22;;;;;;;12.60;5.97;;;;;;;13.52;62.56;101452.28;4940338;28;20047;-81
2023/04/28 02:32:49;;;;;;;9.27;5.72;;;;;;;13.02;62.46;101370.41;4942820;28;20551;-81
2023/04/28 02:35:15;;;;;;;10.05;6.50;;;;;;;13.89;62.55;101522.78;4942846;28;20050;-81
2023/04/28 02:37:46;;;;;;;8.57;5.55;;;;;;;13.53;62.34;101473.50;4945029;28;20541;-81
2023/04/28 02:40:12;;;;;;;15.40;6.63;;;;;;;13.94;62.01;101534.91;4939660;28;20047;-82
2023/04/28 02:42:42;;;;;;;9.65;6.25;;;;;;;13.88;62.30;101531.78;4943460;28;20055;-82
2023/04/28 02:45:09;;;;;;;9.75;6.63;;;;;;;13.92;62.18;101523.50;4945077;28;20680;-81
2023/04/28 02:47:36;;;;;;;12.07;6.90;;;;;;;13.52;62.24;101447.81;4945593;28;20275;-82
2023/04/28 02:50:05;;;;;;;15.80;7.05;;;;;;;13.08;62.12;101382.34;4945527;28;20043;-81
2023/04/28 02:52:32;;;;;;;19.63;7.85;;;;;;;13.92;61.73;101502.16;4944257;28;20308;-82
2023/04/28 02:55:03;;;;;;;19.92;7.90;;;;;;;14.09;62.33;101520.19;4940746;28;20050;-82
2023/04/28 02:57:30;;;;;;;11.90;7.22;;;;;;;14.12;61.96;101517.22;4944248;28;20612;-80
2023/04/28 02:59:57;;;;;;;12.48;8.00;;;;;;;14.07;62.06;101516.78;4944601;28;20156;-81
2023/04/28 03:02:25;;;;;;;17.08;7.95;;;;;;;13.95;61.67;101493.88;4936093;28;20043;-81
2023/04/28 03:04:52;;;;;;;15.77;8.50;;;;;;;13.84;62.55;101505.50;4946407;28;20283;-81
2023/04/28 03:07:18;;;;;;;18.48;8.40;;;;;;;13.79;62.97;101505.91;4941528;28;20618;-82
2023/04/28 03:09:45;;;;;;;14.00;7.80;;;;;;;13.53;63.12;101494.00;4936880;28;20070;-81
2023/04/28 03:12:11;;;;;;;20.08;10.13;;;;;;;13.49;63.61;101481.91;4939963;28;20121;-82
2023/04/28 03:14:38;;;;;;;12.88;9.18;;;;;;;13.68;63.44;101509.50;4942543;28;20501;-81
2023/04/28 03:17:05;;;;;;;16.17;10.30;;;;;;;13.68;63.76;101514.84;4947563;28;20066;-81
2023/04/28 03:19:32;;;;;;;16.52;10.35;;;;;;;13.44;63.50;101467.16;4945240;28;20082;-81
2023/04/28 03:21:58;;;;;;;17.50;11.05;;;;;;;13.65;63.27;101495.59;4945331;28;20385;-82
2023/04/28 03:24:25;;;;;;;14.82;9.80;;;;;;;13.71;62.99;101497.72;4927461;28;20059;-81
2023/04/28 03:26:57;;;;;;;18.98;11.73;;;;;;;13.57;63.50;101484.75;4925655;28;20424;-81
2023/04/28 03:29:27;;;;;;;24.45;12.48;;;;;;;13.63;63.97;101516.22;4944246;28;20058;-80
2023/04/28 03:31:54;;;;;;;20.88;12.25;;;;;;;13.67;64.10;101525.66;4954280;28;20576;-81
2023/04/28 03:34:21;;;;;;;21.08;13.05;;;;;;;13.58;65.72;101529.13;4903101;29;20130;-80
2023/04/28 03:36:47;;;;;;;19.80;12.80;;;;;;;12.94;66.73;101451.03;4910502;29;20329;-80
2023/04/28 03:39:19;;;;;;;21.45;12.23;;;;;;;13.30;67.23;101526.19;4906259;29;20270;-81
2023/04/28 03:41:52;;;;;;;20.85;12.38;;;;;;;12.93;67.77;101481.28;4914771;29;20059;-81
2023/04/28 03:44:18;;;;;;;16.60;12.05;;;;;;;12.86;67.31;101473.94;4911820;28;20092;-81
2023/04/28 03:46:45;;;;;;;20.48;13.50;;;;;;;13.02;68.15;101517.84;4907421;29;20505;-82
2023/04/28 03:49:14;;;;;;;21.58;13.13;;;;;;;12.98;68.96;101515.56;4887713;29;20521;-82
2023/04/28 03:51:41;;;;;;;25.10;13.93;;;;;;;12.40;69.10;101433.38;4929750;28;20078;-82
2023/04/28 03:54:17;;;;;;;29.52;14.35;;;;;;;12.90;69.20;101513.53;4933589;28;20305;-81
2023/04/28 03:56:52;;;;;;;21.75;13.27;;;;;;;12.82;69.49;101510.69;4900641;28;20755;-81
2023/04/28 03:59:20;;;;;;;21.48;13.30;;;;;;;12.88;69.67;101525.31;4918923;28;20606;-80
2023/04/28 04:01:52;;;;;;;26.35;13.23;;;;;;;12.79;69.56;101517.13;4930121;28;20490;-80
2023/04/28 04:04:19;;;;;;;23.90;12.75;;;;;;;12.87;69.42;101537.78;4930518;28;20058;-80
2023/04/28 04:06:49;;;;;;;21.42;13.18;;;;;;;12.64;69.46;101496.22;4942080;28;20054;-81
2023/04/28 04:09:16;;;;;;;21.08;12.68;;;;;;;12.83;69.34;101518.53;4924983;28;20364;-82
2023/04/28 04:11:42;;;;;;;27.42;14.20;;;;;;;12.75;69.83;101514.84;4931142;28;20445;-80
2023/04/28 04:14:09;;;;;;;23.60;13.80;;;;;;;12.74;69.72;101513.13;4929447;28;20113;-81
2023/04/28 04:16:38;;;;;;;29.98;14.02;;;;;;;12.84;69.87;101527.41;4934619;28;20105;-80
2023/04/28 04:19:07;;;;;;;24.73;13.50;;;;;;;12.69;69.59;101475.38;4957624;28;20489;-81
2023/04/28 04:21:33;;;;;;;22.42;14.20;;;;;;;12.39;69.51;101423.72;4963915;28;20122;-81
2023/04/28 04:24:00;;;;;;;26.35;14.02;;;;;;;13.11;69.25;101536.72;4941641;28;20194;-82
2023/04/28 04:26:27;;;;;;;27.33;14.30;;;;;;;13.01;68.89;101515.28;4933273;28;20061;-81
2023/04/28 04:28:53;;;;;;;26.38;14.15;;;;;;;13.13;69.00;101540.06;4938658;28;20042;-81
2023/04/28 04:31:21;;;;;;;28.02;15.95;;;;;;;12.90;69.29;101516.22;4922885;28;20050;-81
2023/04/28 04:33:50;;;;;;;31.38;15.27;;;;;;;13.02;69.81;101543.66;4929140;28;20061;-82
2023/04/28 04:36:17;;;;;;;28.15;13.43;;;;;;;12.93;70.66;101544.41;4941563;28;20090;-80
2023/04/28 04:38:43;;;;;;;24.52;12.13;;;;;;;12.81;71.01;101540.94;4935439;28;20830;-81
2023/04/28 04:41:10;;;;;;;18.70;12.13;;;;;;;12.57;71.38;101501.22;4922175;28;20500;-81
2023/04/28 04:43:36;;;;;;;22.60;12.32;;;;;;;12.64;70.81;101498.91;4928550;28;20302;-79
2023/04/28 04:46:08;;;;;;;19.52;10.93;;;;;;;12.19;71.34;101438.69;4917309;28;20062;-80
2023/04/28 04:48:45;;;;;;;20.10;11.32;;;;;;;12.94;70.53;101533.63;4938582;28;20676;-80
2023/04/28 04:51:12;;;;;;;20.40;12.32;;;;;;;12.70;70.94;101507.22;4935525;28;20089;-79
2023/04/28 04:53:39;;;;;;;20.33;10.82;;;;;;;12.54;70.51;101486.34;4959966;28;20146;-81
2023/04/28 04:56:08;;;;;;;25.33;12.65;;;;;;;12.76;70.15;101516.53;4950389;28;20066;-80
2023/04/28 04:58:35;;;;;;;18.35;10.98;;;;;;;13.12;69.41;101552.56;4949132;28;20142;-80
2023/04/28 05:01:02;;;;;;;29.75;12.15;;;;;;;13.08;69.63;101542.28;4935257;28;20493;-82
2023/04/28 05:03:34;;;;;;;18.25;11.70;;;;;;;13.01;70.51;101564.13;4926393;28;20074;-81
2023/04/28 05:06:04;;;;;;;23.63;11.70;;;;;;;12.91;70.93;101543.69;4943383;28;20472;-80
2023/04/28 05:08:30;;;;;;;18.08;10.50;;;;;;;13.01;70.90;101569.47;4938338;28;20047;-80
2023/04/28 05:11:00;;;;;;;16.58;10.45;;;;;;;12.84;70.89;101535.41;4937644;28;20121;-80
2023/04/28 05:13:29;;;;;;;19.45;11.00;;;;;;;12.81;71.02;101524.97;4918584;28;20199;-81
2023/04/28 05:15:56;;;;;;;19.33;11.88;;;;;;;13.12;70.91;101562.38;4955600;28;20058;-81
2023/04/28 05:18:23;;;;;;;17.65;10.57;;;;;;;13.10;70.75;101546.50;4923387;28;20121;-81
2023/04/28 05:20:49;;;;;;;17.20;9.60;;;;;;;12.73;71.06;101495.47;4914723;28;20056;-81
2023/04/28 05:23:16;;;;;;;18.50;9.68;;;;;;;12.89;70.81;101506.53;4930926;28;20895;-80
2023/04/28 05:25:46;;;;;;;16.95;9.82;;;;;;;13.13;70.14;101508.06;4921192;28;20050;-81
2023/04/28 05:28:12;;;;;;;15.32;8.82;;;;;;;13.31;70.77;101554.53;4926496;28;20058;-80
2023/04/28 05:30:40;;;;;;;18.73;10.40;;;;;;;13.35;70.79;101566.66;4941691;28;20082;-80
2023/04/28 05:33:06;;;;;;;19.58;10.27;;;;;;;12.89;70.52;101485.22;4955061;28;20587;-81
2023/04/28 05:35:35;;;;;;;17.25;9.85;;;;;;;13.20;71.02;101552.78;4942712;28;20117;-81
2023/04/28 05:38:01;;;;;;;14.75;9.05;;;;;;;13.11;71.73;101550.88;4949297;28;20053;-82
2023/04/28 05:40:33;;;;;;;9.93;7.10;;;;;;;13.40;71.22;101572.44;4941669;28;20051;-80
2023/04/28 05:43:00;;;;;;;13.43;6.82;;;;;;;12.95;71.21;101511.34;4918323;28;20098;-81
2023/04/28 05:45:32;;;;;;;15.45;7.43;;;;;;;13.24;71.56;101559.50;4923580;28;20274;-81
2023/04/28 05:47:58;;;;;;;11.68;7.93;;;;;;;13.30;71.31;101563.53;4937164;28;20046;-79
2023/04/28 05:50:31;;;;;;;14.00;8.98;;;;;;;13.11;71.04;101518.03;4951644;28;20058;-81
2023/04/28 05:53:04;;;;;;;16.88;11.48;;;;;;;13.04;71.22;101499.91;4937208;28;20512;-80
2023/04/28 05:55:32;;;;;;;17.90;8.77;;;;;;;13.34;70.98;101532.94;4923985;28;20047;-81
2023/04/28 05:58:05;;;;;;;17.83;9.18;;;;;;;13.68;71.09;101589.56;4924239;28;20129;-81
2023/04/28 06:00:35;;;;;;;15.20;9.25;;;;;;;13.63;71.16;101585.59;4909759;28;20043;-81
2023/04/28 06:03:05;;;;;;;13.63;8.25;;;;;;;13.54;71.38;101570.38;4916235;28;20047;-81
2023/04/28 06:05:34;;;;;;;13.40;7.57;;;;;;;13.74;71.83;101593.53;4943460;28;20101;-81
2023/04/28 06:08:02;;;;;;;12.77;8.25;;;;;;;13.83;70.86;101586.53;4937296;28;20780;-82
2023/04/28 06:10:29;;;;;;;10.90;7.45;;;;;;;13.77;70.74;101545.22;4938325;28;20451;-80
2023/04/28 06:12:56;;;;;;;21.00;9.55;;;;;;;14.01;70.13;101584.09;4944657;28;20043;-80
2023/04/28 06:15:23;;;;;;;16.98;9.82;;;;;;;14.02;70.15;101583.13;4914133;28;20057;-81
2023/04/28 06:17:53;;;;;;;20.10;11.15;;;;;;;13.39;70.32;101477.38;4953068;28;20122;-81
2023/04/28 06:20:19;;;;;;;19.83;13.20;;;;;;;13.85;70.75;101540.06;4922572;28;21085;-81
2023/04/28 06:22:46;;;;;;;27.13;15.18;;;;;;;13.95;71.38;101568.59;4944540;28;20372;-80
2023/04/28 06:25:13;;;;;;;26.17;14.35;;;;;;;13.75;72.44;101543.69;4945516;28;20105;-80
2023/04/28 06:27:40;;;;;;;26.90;13.90;;;;;;;14.03;72.17;101587.47;4920744;28;20109;-81
2023/04/28 06:30:07;;;;;;;25.30;13.43;;;;;;;13.78;71.37;101528.22;4931325;28;20567;-81
2023/04/28 06:32:33;;;;;;;21.58;13.50;;;;;;;14.14;71.51;101574.00;4946836;28;20191;-79
2023/04/28 06:35:00;;;;;;;24.98;14.35;;;;;;;14.15;70.94;101548.16;4953453;28;20515;-80
2023/04/28 06:37:30;;;;;;;29.27;13.20;;;;;;;14.31;71.43;101570.69;4950239;28;20051;-79
2023/04/28 06:39:57;;;;;;;23.27;13.23;;;;;;;14.23;70.17;101530.47;4946012;28;20109;-80
2023/04/28 06:42:26;;;;;;;20.95;12.20;;;;;;;14.07;70.33;101506.97;4935371;28;20058;-80
2023/04/28 06:44:53;;;;;;;20.50;12.57;;;;;;;14.44;69.87;101553.56;4944424;28;20406;-80
2023/04/28 06:47:20;;;;;;;18.20;12.80;;;;;;;14.51;70.13;101549.34;4962338;28;20275;-79
2023/04/28 06:49:49;;;;;;;20.27;13.27;;;;;;;13.74;69.72;101438.75;4951068;28;20446;-81
2023/04/28 06:52:17;;;;;;;22.48;12.93;;;;;;;14.30;69.68;101504.06;4928731;28;20054;-81
2023/04/28 06:55:08;;;;;;;25.27;14.15;;;;;;;13.84;69.66;101433.44;4947705;28;20089;-78
2023/04/28 06:57:36;;;;;;;24.13;13.45;;;;;;;14.47;69.47;101539.94;4968457;28;20099;-81
2023/04/28 07:00:04;;;;;;;26.75;13.35;;;;;;;14.79;68.89;101565.59;4952357;28;20054;-80
2023/04/28 07:02:31;;;;;;;23.10;13.95;;;;;;;14.85;68.17;101565.84;4949930;28;20050;-77
2023/04/28 07:04:58;;;;;;;20.48;13.38;;;;;;;14.77;67.66;101538.16;4955076;28;20042;-82
2023/04/28 07:07:25;;;;;;;28.52;14.57;;;;;;;15.06;68.28;101563.03;4944714;28;20069;-80
2023/04/28 07:09:52;;;;;;;20.65;13.63;;;;;;;15.05;68.05;101558.69;4948147;28;20519;-81
2023/04/28 07:12:22;;;;;;;20.25;12.90;;;;;;;14.72;67.52;101501.97;4960957;28;20122;-80
2023/04/28 07:14:52;;;;;;;30.02;14.70;;;;;;;15.04;67.04;101545.44;4960363;28;20144;-80
2023/04/28 07:17:23;;;;;;;26.25;14.30;;;;;;;15.16;66.91;101547.81;4971774;28;20081;-82
2023/04/28 07:19:50;;;;;;;25.73;15.27;;;;;;;15.18;67.28;101553.03;4952160;28;20051;-79
2023/04/28 07:22:20;;;;;;;25.67;16.40;;;;;;;15.06;66.63;101520.25;4969009;28;20051;-82
2023/04/28 07:24:46;;;;;;;25.70;14.82;;;;;;;15.26;66.38;101533.56;4947813;28;20054;-81
2023/04/28 07:27:13;;;;;;;30.98;15.52;;;;;;;15.25;66.46;101550.63;4960832;28;20113;-82
2023/04/28 07:29:40;;;;;;;24.92;14.95;;;;;;;15.41;65.55;101558.03;4941241;28;20054;-81
2023/04/28 07:32:09;;;;;;;23.33;14.93;;;;;;;15.39;66.43;101560.88;4958364;28;20046;-81
2023/04/28 07:34:36;;;;;;;25.33;14.93;;;;;;;15.36;66.51;101550.44;4964338;28;20050;-80
2023/04/28 07:37:05;;;;;;;22.83;15.52;;;;;;;15.40;66.00;101525.09;4949572;28;20413;-81
2023/04/28 07:39:33;;;;;;;25.17;14.82;;;;;;;15.64;65.45;101563.91;4946532;28;20174;-82
2023/04/28 07:42:01;;;;;;;27.63;15.77;;;;;;;15.69;65.66;101561.63;4970236;28;20054;-81
2023/04/28 07:44:33;;;;;;;26.58;15.02;;;;;;;15.63;65.46;101554.16;4949346;28;20077;-83
2023/04/28 07:47:00;;;;;;;24.80;15.75;;;;;;;15.31;65.78;101483.16;4973792;28;20272;-82
2023/04/28 07:49:28;;;;;;;26.17;15.82;;;;;;;15.69;64.57;101542.91;4982977;28;20164;-81
2023/04/28 07:51:55;;;;;;;30.70;17.88;;;;;;;15.77;64.06;101548.38;4970542;28;20054;-80
2023/04/28 07:54:22;;;;;;;36.97;17.85;;;;;;;15.74;64.74;101535.28;4950044;28;20137;-81
2023/04/28 07:56:49;;;;;;;29.75;17.85;;;;;;;15.88;64.52;101540.16;4960742;28;20582;-81
2023/04/28 07:59:15;;;;;;;28.23;17.90;;;;;;;16.00;63.72;101549.69;4982567;28;20053;-80
2023/04/28 08:01:49;;;;;;;29.98;17.75;;;;;;;15.96;63.17;101537.56;4976421;28;20058;-79
2023/04/28 08:04:17;;;;;;;33.88;18.92;;;;;;;16.16;63.35;101565.09;4988050;28;20069;-81
2023/04/28 08:06:44;;;;;;;30.63;18.02;;;;;;;16.24;62.72;101567.03;4992106;28;20077;-80
2023/04/28 08:09:14;;;;;;;32.20;19.90;;;;;;;15.26;61.96;101405.19;4931357;28;20647;-80
2023/04/28 08:11:41;;;;;;;34.80;18.95;;;;;;;16.13;62.15;101527.06;4970003;28;20054;-80
2023/04/28 08:14:13;;;;;;;32.85;19.30;;;;;;;16.33;61.58;101547.38;4965630;28;20093;-81
2023/04/28 08:16:40;;;;;;;34.90;20.65;;;;;;;16.53;62.35;101571.34;4970728;28;20500;-78
2023/04/28 08:19:07;;;;;;;29.85;19.30;;;;;;;16.48;61.87;101547.72;4965796;28;20500;-81
2023/04/28 08:21:33;;;;;;;34.95;20.23;;;;;;;16.48;61.31;101520.03;4953340;28;20134;-81
2023/04/28 08:24:00;;;;;;;33.97;20.52;;;;;;;16.66;60.86;101550.38;4980233;28;20794;-81
2023/04/28 08:26:27;;;;;;;33.75;21.02;;;;;;;16.80;61.02;101568.66;4984651;28;20578;-80
2023/04/28 08:28:53;;;;;;;30.83;20.60;;;;;;;16.67;60.81;101536.84;4955376;28;20137;-80
2023/04/28 08:31:20;;;;;;;35.95;20.30;;;;;;;16.94;60.46;101564.56;4942984;28;20074;-81
2023/04/28 08:33:49;;;;;;;36.13;19.45;;;;;;;17.00;60.36;101565.81;4950903;28;20082;-82
2023/04/28 08:36:18;;;;;;;32.70;18.10;;;;;;;16.99;58.44;101539.97;4939257;28;20052;-83
2023/04/28 08:38:48;;;;;;;30.00;18.00;;;;;;;16.44;58.68;101445.31;4958032;28;20058;-81
2023/04/28 08:41:20;;;;;;;30.40;18.13;;;;;;;17.29;58.29;101550.25;4950405;28;20504;-82
2023/04/28 08:43:47;;;;;;;33.70;17.17;;;;;;;17.36;57.00;101549.66;4967404;28;20050;-80
2023/04/28 08:46:17;;;;;;;27.88;16.65;;;;;;;16.87;55.32;101473.19;4970618;28;20046;-81
2023/04/28 08:48:48;;;;;;;26.90;16.83;;;;;;;16.99;55.13;101462.19;4975010;28;20256;-82
2023/04/28 08:51:23;;;;;;;27.25;16.88;;;;;;;16.72;55.03;101414.88;4965457;28;20042;-81
2023/04/28 08:53:53;;;;;;;23.17;14.25;;;;;;;17.49;55.41;101524.03;4952681;28;20521;-80
2023/04/28 08:56:35;;;;;;;26.80;16.20;;;;;;;17.72;54.85;101545.81;4939770;28;20046;-82
2023/04/28 08:59:05;;;;;;;25.15;14.98;;;;;;;17.15;54.10;101442.69;4976889;28;20056;-82
2023/04/28 09:01:32;;;;;;;30.73;15.55;;;;;;;17.70;53.86;101502.16;4993285;28;20165;-81
2023/04/28 09:04:01;;;;;;;22.30;15.18;;;;;;;18.19;53.99;101549.06;4989349;28;20054;-80
2023/04/28 09:06:34;;;;;;;28.67;15.50;;;;;;;17.95;53.69;101486.19;4985046;28;20060;-81
2023/04/28 09:09:20;;;;;;;27.13;15.15;;;;;;;18.18;52.60;101505.22;4951793;28;20050;-82
2023/04/28 09:12:03;;;;;;;26.10;14.98;;;;;;;18.14;52.94;101491.25;4938437;28;20057;-83
2023/04/28 09:14:33;;;;;;;19.23;13.20;;;;;;;18.55;52.79;101539.72;4960561;28;20277;-81
2023/04/28 09:17:11;;;;;;;21.05;14.60;;;;;;;18.26;51.95;101461.41;4966182;28;20078;-82
2023/04/28 09:19:41;;;;;;;20.02;13.75;;;;;;;18.42;52.28;101476.69;4952317;28;20057;-82
2023/04/28 09:22:08;;;;;;;26.65;14.23;;;;;;;18.79;52.08;101535.41;4965386;28;20054;-83
2023/04/28 09:24:54;;;;;;;21.17;14.15;;;;;;;18.85;52.45;101518.59;4963304;28;20061;-82
2023/04/28 09:27:33;;;;;;;25.27;14.07;;;;;;;18.59;51.59;101448.78;4934784;28;20049;-82
2023/04/28 09:30:09;;;;;;;23.98;13.15;;;;;;;19.20;50.65;101535.41;4936079;28;20053;-83
2023/04/28 09:32:36;;;;;;;26.08;13.60;;;;;;;18.81;50.58;101443.78;4936781;28;20137;-83
2023/04/28 09:35:07;;;;;;;20.63;12.57;;;;;;;18.94;49.83;101430.66;4959753;28;20457;-82
2023/04/28 09:37:36;;;;;;;18.17;12.80;;;;;;;19.67;50.00;101531.06;4954009;28;20384;-79
2023/04/28 09:40:11;;;;;;;17.15;12.27;;;;;;;19.52;50.05;101498.66;4924966;28;20034;-81
2023/04/28 09:42:43;;;;;;;25.38;13.35;;;;;;;19.64;49.80;101481.09;4945912;28;20140;-81
2023/04/28 09:45:14;;;;;;;23.33;12.95;;;;;;;19.67;48.92;101469.13;4941681;28;20058;-82
2023/04/28 09:47:42;;;;;;;25.60;12.38;;;;;;;20.17;49.25;101519.94;4931878;28;20050;-81
2023/04/28 09:50:13;;;;;;;20.38;13.02;;;;;;;20.34;49.08;101507.19;4917881;28;20051;-82
2023/04/28 09:52:43;;;;;;;14.07;11.90;;;;;;;20.40;47.77;101497.53;4926975;28;20054;-82
2023/04/28 09:55:16;;;;;;;21.05;11.98;;;;;;;20.51;47.92;101505.22;4925680;28;20057;-81
2023/04/28 09:57:44;;;;;;;24.75;11.82;;;;;;;20.70;46.91;101518.25;4955120;28;20120;-81
2023/04/28 10:00:16;;;;;;;17.17;10.15;;;;;;;20.64;45.46;101500.09;4951610;28;20045;-80
2023/04/28 10:02:52;;;;;;;16.35;10.00;;;;;;;20.82;44.83;101515.09;4975875;28;20104;-80
2023/04/28 10:05:21;;;;;;;20.45;11.88;;;;;;;20.79;46.04;101492.03;4955998;28;20135;-81
2023/04/28 10:07:50;;;;;;;18.15;11.32;;;;;;;21.03;46.07;101490.97;4963564;28;20153;-83
2023/04/28 10:10:21;;;;;;;18.40;12.88;;;;;;;21.24;45.39;101492.97;4938272;28;20070;-81
2023/04/28 10:12:50;;;;;;;18.67;11.55;;;;;;;20.30;45.18;101298.25;4961686;28;20054;-82
2023/04/28 10:15:17;;;;;;;23.50;11.70;;;;;;;21.57;45.27;101478.25;4912722;28;20563;-83
2023/04/28 10:17:46;;;;;;;21.00;13.00;;;;;;;21.70;45.26;101470.31;4942457;28;20051;-83
2023/04/28 10:20:17;;;;;;;22.35;15.20;;;;;;;22.04;45.82;101491.34;4965209;28;20050;-80
2023/04/28 10:23:03;;;;;;;23.65;16.05;;;;;;;22.11;45.95;101491.38;4925851;28;20141;-80
2023/04/28 10:25:33;;;;;;;26.38;17.80;;;;;;;21.61;46.49;101382.31;4919861;28;20051;-81
2023/04/28 10:28:07;;;;;;;29.85;18.23;;;;;;;21.00;46.54;101288.06;4945026;28;20398;-80
2023/04/28 10:30:41;;;;;;;31.42;19.33;;;;;;;22.16;46.66;101467.31;4932431;28;20138;-80
2023/04/28 10:33:25;;;;;;;38.95;19.88;;;;;;;22.49;46.03;101481.22;4939010;28;20532;-81
2023/04/28 10:35:52;;;;;;;34.85;20.73;;;;;;;22.36;46.39;101463.00;4946070;28;20047;-81
2023/04/28 10:38:25;;;;;;;33.00;20.08;;;;;;;22.00;46.84;101381.88;4939941;28;20070;-81
2023/04/28 10:41:03;;;;;;;37.17;22.10;;;;;;;22.72;47.16;101482.84;4915609;28;20065;-83
2023/04/28 10:43:38;;;;;;;43.08;25.38;;;;;;;21.97;47.56;101344.44;4942447;28;20327;-81
2023/04/28 10:46:07;;;;;;;43.75;25.55;;;;;;;22.94;46.63;101453.91;4934714;28;20374;-81
2023/04/28 10:48:47;;;;;;;44.90;25.58;;;;;;;23.19;46.75;101463.25;4919318;28;20075;-79
2023/04/28 10:51:18;;;;;;;43.47;25.58;;;;;;;23.16;47.02;101436.56;4933346;28;20453;-81
2023/04/28 10:53:45;;;;;;;43.65;25.98;;;;;;;23.39;46.78;101462.53;4942669;28;20054;-81
2023/04/28 10:56:21;;;;;;;43.92;25.30;;;;;;;23.54;46.80;101459.69;4940968;28;20054;-82
2023/04/28 10:58:50;;;;;;;43.55;24.60;;;;;;;23.29;46.65;101408.72;4917102;28;20416;-80
2023/04/28 11:01:23;;;;;;;45.25;25.63;;;;;;;23.57;46.33;101449.28;4941308;28;20668;-80
2023/04/28 11:04:12;;;;;;;41.83;24.13;;;;;;;23.62;45.86;101452.22;4945182;28;20063;-80
2023/04/28 11:07:07;;;;;;;35.25;21.45;;;;;;;23.70;44.92;101447.66;4948628;28;20298;-80
2023/04/28 11:09:40;;;;;;;32.55;20.77;;;;;;;23.75;44.93;101458.78;4920435;29;20082;-81
2023/04/28 11:12:09;;;;;;;32.55;20.13;;;;;;;23.58;45.48;101423.84;4958401;28;20685;-80
2023/04/28 11:14:39;;;;;;;31.98;18.73;;;;;;;23.73;45.29;101421.00;4947260;28;20142;-80
2023/04/28 11:17:11;;;;;;;22.98;16.95;;;;;;;23.94;44.87;101444.44;4960826;28;20549;-82
2023/04/28 11:19:45;;;;;;;22.98;15.70;;;;;;;23.85;44.50;101437.53;4949978;28;20218;-80
2023/04/28 11:22:22;;;;;;;22.88;16.40;;;;;;;23.78;44.76;101433.97;4937821;28;20053;-82
2023/04/28 11:25:00;;;;;;;24.95;15.48;;;;;;;23.63;44.34;101410.53;4946398;28;20565;-82